sensor_id;sensor_type;location;lat;lon;timestamp;pressure;altitude;pressure_sealevel;temperature;humidity
36598;BME280;22607;49.550;11.940;2022-12-07T00:00:18;96723.88;;;2.07;100.00
36598;BME280;22607;49.550;11.940;2022-12-07T00:02:45;96723.94;;;2.29;100.00
36598;BME280;22607;49.550;11.940;2022-12-07T00:05:11;96718.34;;;2.12;100.00
36598;BME280;22607;49.550;11.940;2022-12-07T00:07:44;96729.50;;;2.24;100.00
36598;BME280;22607;49.550;11.940;2022-12-07T00:10:12;96710.56;;;2.45;100.00
36598;BME280;22607;49.550;11.940;2022-12-07T00:12:39;96721.44;;;2.39;100.00
36598;BME280;22607;49.550;11.940;2022-12-07T00:15:06;96722.69;;;2.23;100.00
36598;BME280;22607;49.550;11.940;2022-12-07T00:17:33;96726.22;;;2.22;100.00
36598;BME280;22607;49.550;11.940;2022-12-07T00:19:59;96711.13;;;2.27;100.00
36598;BME280;22607;49.550;11.940;2022-12-07T00:22:27;96713.63;;;2.17;100.00
36598;BME280;22607;49.550;11.940;2022-12-07T00:24:53;96706.75;;;2.28;100.00
36598;BME280;22607;49.550;11.940;2022-12-07T00:27:19;96712.03;;;2.38;100.00
36598;BME280;22607;49.550;11.940;2022-12-07T00:29:46;96710.69;;;2.22;100.00
36598;BME280;22607;49.550;11.940;2022-12-07T00:32:12;96710.25;;;2.38;100.00
36598;BME280;22607;49.550;11.940;2022-12-07T00:34:39;96703.09;;;2.30;100.00
36598;BME280;22607;49.550;11.940;2022-12-07T00:37:05;96709.44;;;2.38;100.00
36598;BME280;22607;49.550;11.940;2022-12-07T00:39:31;96709.78;;;2.44;100.00
36598;BME280;22607;49.550;11.940;2022-12-07T00:41:58;96711.81;;;2.29;100.00
36598;BME280;22607;49.550;11.940;2022-12-07T00:44:24;96711.66;;;2.42;100.00
36598;BME280;22607;49.550;11.940;2022-12-07T00:46:51;96708.81;;;2.45;100.00
36598;BME280;22607;49.550;11.940;2022-12-07T00:49:17;96702.13;;;2.43;100.00
36598;BME280;22607;49.550;11.940;2022-12-07T00:51:44;96708.19;;;2.53;100.00
36598;BME280;22607;49.550;11.940;2022-12-07T00:54:10;96699.06;;;2.38;100.00
36598;BME280;22607;49.550;11.940;2022-12-07T00:56:38;96697.78;;;2.32;100.00
36598;BME280;22607;49.550;11.940;2022-12-07T00:59:04;96700.53;;;2.52;100.00
36598;BME280;22607;49.550;11.940;2022-12-07T01:01:33;96699.59;;;2.31;100.00
36598;BME280;22607;49.550;11.940;2022-12-07T01:04:01;96703.75;;;2.44;100.00
36598;BME280;22607;49.550;11.940;2022-12-07T01:06:27;96698.34;;;2.47;100.00
36598;BME280;22607;49.550;11.940;2022-12-07T01:08:54;96703.97;;;2.52;100.00
36598;BME280;22607;49.550;11.940;2022-12-07T01:11:28;96705.72;;;2.52;100.00
36598;BME280;22607;49.550;11.940;2022-12-07T01:13:56;96704.09;;;2.51;100.00
36598;BME280;22607;49.550;11.940;2022-12-07T01:16:23;96711.22;;;2.58;100.00
36598;BME280;22607;49.550;11.940;2022-12-07T01:18:51;96712.38;;;2.44;100.00
36598;BME280;22607;49.550;11.940;2022-12-07T01:21:21;96713.69;;;2.60;100.00
36598;BME280;22607;49.550;11.940;2022-12-07T01:23:49;96708.19;;;2.53;100.00
36598;BME280;22607;49.550;11.940;2022-12-07T01:26:17;96714.28;;;2.63;100.00
36598;BME280;22607;49.550;11.940;2022-12-07T01:28:44;96710.16;;;2.61;100.00
36598;BME280;22607;49.550;11.940;2022-12-07T01:31:11;96710.47;;;2.68;100.00
36598;BME280;22607;49.550;11.940;2022-12-07T01:33:38;96712.00;;;2.70;100.00
36598;BME280;22607;49.550;11.940;2022-12-07T01:36:06;96717.03;;;2.51;100.00
36598;BME280;22607;49.550;11.940;2022-12-07T01:38:33;96714.03;;;2.67;100.00
36598;BME280;22607;49.550;11.940;2022-12-07T01:41:05;96714.53;;;2.60;100.00
36598;BME280;22607;49.550;11.940;2022-12-07T01:43:32;96711.69;;;2.63;100.00
36598;BME280;22607;49.550;11.940;2022-12-07T01:46:02;96708.59;;;2.37;100.00
36598;BME280;22607;49.550;11.940;2022-12-07T01:48:34;96710.44;;;2.58;100.00
36598;BME280;22607;49.550;11.940;2022-12-07T01:51:05;96713.88;;;2.47;100.00
36598;BME280;22607;49.550;11.940;2022-12-07T01:53:33;96702.69;;;2.46;100.00
36598;BME280;22607;49.550;11.940;2022-12-07T01:56:02;96697.59;;;2.56;100.00
36598;BME280;22607;49.550;11.940;2022-12-07T01:58:29;96704.41;;;2.57;100.00
36598;BME280;22607;49.550;11.940;2022-12-07T02:00:56;96708.94;;;2.44;100.00
36598;BME280;22607;49.550;11.940;2022-12-07T02:03:27;96711.22;;;2.58;100.00
36598;BME280;22607;49.550;11.940;2022-12-07T02:05:55;96706.97;;;2.69;100.00
36598;BME280;22607;49.550;11.940;2022-12-07T02:08:22;96705.06;;;2.71;100.00
36598;BME280;22607;49.550;11.940;2022-12-07T02:10:50;96709.41;;;2.70;100.00
36598;BME280;22607;49.550;11.940;2022-12-07T02:13:21;96700.50;;;2.63;100.00
36598;BME280;22607;49.550;11.940;2022-12-07T02:18:33;96705.19;;;2.69;100.00
36598;BME280;22607;49.550;11.940;2022-12-07T02:31:51;96699.63;;;2.53;100.00
36598;BME280;22607;49.550;11.940;2022-12-07T02:34:27;96698.78;;;2.52;100.00
36598;BME280;22607;49.550;11.940;2022-12-07T02:36:55;96701.78;;;2.69;100.00
36598;BME280;22607;49.550;11.940;2022-12-07T02:39:28;96708.06;;;2.55;100.00
36598;BME280;22607;49.550;11.940;2022-12-07T02:41:59;96692.16;;;2.59;100.00
36598;BME280;22607;49.550;11.940;2022-12-07T02:44:28;96695.00;;;2.56;100.00
36598;BME280;22607;49.550;11.940;2022-12-07T02:46:55;96697.59;;;2.56;100.00
36598;BME280;22607;49.550;11.940;2022-12-07T02:49:25;96696.75;;;2.56;100.00
36598;BME280;22607;49.550;11.940;2022-12-07T02:51:52;96696.44;;;2.49;100.00
36598;BME280;22607;49.550;11.940;2022-12-07T02:54:20;96691.00;;;2.52;100.00
36598;BME280;22607;49.550;11.940;2022-12-07T02:59:45;96681.03;;;2.69;100.00
36598;BME280;22607;49.550;11.940;2022-12-07T03:10:03;96685.16;;;2.39;100.00
36598;BME280;22607;49.550;11.940;2022-12-07T03:12:39;96685.16;;;2.39;100.00
36598;BME280;22607;49.550;11.940;2022-12-07T03:15:14;96689.44;;;2.28;100.00
36598;BME280;22607;49.550;11.940;2022-12-07T03:17:45;96690.44;;;2.48;100.00
36598;BME280;22607;49.550;11.940;2022-12-07T03:20:13;96683.19;;;2.31;100.00
36598;BME280;22607;49.550;11.940;2022-12-07T03:22:42;96682.63;;;2.27;100.00
36598;BME280;22607;49.550;11.940;2022-12-07T03:25:10;96675.53;;;2.29;100.00
36598;BME280;22607;49.550;11.940;2022-12-07T03:27:41;96676.50;;;2.17;100.00
36598;BME280;22607;49.550;11.940;2022-12-07T03:30:10;96674.63;;;2.19;100.00
36598;BME280;22607;49.550;11.940;2022-12-07T03:32:42;96675.22;;;1.90;100.00
36598;BME280;22607;49.550;11.940;2022-12-07T03:37:40;96648.59;;;2.20;100.00
36598;BME280;22607;49.550;11.940;2022-12-07T03:42:54;96650.94;;;1.91;100.00
36598;BME280;22607;49.550;11.940;2022-12-07T03:45:25;96653.81;;;1.76;100.00
36598;BME280;22607;49.550;11.940;2022-12-07T03:47:54;96642.28;;;1.80;100.00
36598;BME280;22607;49.550;11.940;2022-12-07T03:50:32;96629.72;;;1.97;100.00
36598;BME280;22607;49.550;11.940;2022-12-07T03:53:08;96632.34;;;1.86;100.00
36598;BME280;22607;49.550;11.940;2022-12-07T03:55:36;96632.66;;;1.60;100.00
36598;BME280;22607;49.550;11.940;2022-12-07T03:58:09;96624.38;;;1.77;100.00
36598;BME280;22607;49.550;11.940;2022-12-07T04:00:36;96620.44;;;1.50;100.00
36598;BME280;22607;49.550;11.940;2022-12-07T04:03:09;96624.56;;;1.41;100.00
36598;BME280;22607;49.550;11.940;2022-12-07T04:05:36;96621.63;;;1.35;100.00
36598;BME280;22607;49.550;11.940;2022-12-07T04:08:14;96621.16;;;1.29;100.00
36598;BME280;22607;49.550;11.940;2022-12-07T04:10:40;96612.69;;;1.27;100.00
36598;BME280;22607;49.550;11.940;2022-12-07T04:13:07;96612.53;;;1.52;100.00
36598;BME280;22607;49.550;11.940;2022-12-07T04:15:33;96612.91;;;1.36;100.00
36598;BME280;22607;49.550;11.940;2022-12-07T04:18:01;96614.56;;;1.37;100.00
36598;BME280;22607;49.550;11.940;2022-12-07T04:20:27;96611.94;;;1.60;100.00
36598;BME280;22607;49.550;11.940;2022-12-07T04:22:53;96624.19;;;1.57;100.00
36598;BME280;22607;49.550;11.940;2022-12-07T04:25:20;96620.69;;;1.47;100.00
36598;BME280;22607;49.550;11.940;2022-12-07T04:27:48;96625.94;;;1.57;100.00
36598;BME280;22607;49.550;11.940;2022-12-07T04:30:15;96631.25;;;1.55;100.00
36598;BME280;22607;49.550;11.940;2022-12-07T04:32:41;96625.81;;;1.59;100.00
36598;BME280;22607;49.550;11.940;2022-12-07T04:35:08;96632.41;;;1.63;100.00
36598;BME280;22607;49.550;11.940;2022-12-07T04:37:34;96630.78;;;1.62;100.00
36598;BME280;22607;49.550;11.940;2022-12-07T04:40:00;96627.47;;;1.60;100.00
36598;BME280;22607;49.550;11.940;2022-12-07T04:42:27;96629.81;;;1.51;100.00
36598;BME280;22607;49.550;11.940;2022-12-07T04:44:54;96631.03;;;1.47;100.00
36598;BME280;22607;49.550;11.940;2022-12-07T04:47:20;96629.63;;;1.31;100.00
36598;BME280;22607;49.550;11.940;2022-12-07T04:49:46;96626.91;;;1.44;100.00
36598;BME280;22607;49.550;11.940;2022-12-07T04:52:13;96629.63;;;1.31;100.00
36598;BME280;22607;49.550;11.940;2022-12-07T04:54:39;96634.34;;;1.38;100.00
36598;BME280;22607;49.550;11.940;2022-12-07T04:57:06;96639.75;;;1.35;100.00
36598;BME280;22607;49.550;11.940;2022-12-07T04:59:32;96638.34;;;1.30;100.00
36598;BME280;22607;49.550;11.940;2022-12-07T05:01:58;96641.75;;;1.31;100.00
36598;BME280;22607;49.550;11.940;2022-12-07T05:04:25;96653.41;;;1.25;100.00
36598;BME280;22607;49.550;11.940;2022-12-07T05:06:51;96662.66;;;1.16;100.00
36598;BME280;22607;49.550;11.940;2022-12-07T05:09:18;96663.25;;;1.31;100.00
36598;BME280;22607;49.550;11.940;2022-12-07T05:11:45;96674.69;;;1.29;100.00
36598;BME280;22607;49.550;11.940;2022-12-07T05:14:18;96676.31;;;1.30;100.00
36598;BME280;22607;49.550;11.940;2022-12-07T05:16:47;96669.63;;;1.27;100.00
36598;BME280;22607;49.550;11.940;2022-12-07T05:19:14;96663.72;;;1.37;100.00
36598;BME280;22607;49.550;11.940;2022-12-07T05:21:43;96665.63;;;1.35;100.00
36598;BME280;22607;49.550;11.940;2022-12-07T05:24:10;96667.25;;;1.36;100.00
36598;BME280;22607;49.550;11.940;2022-12-07T05:26:37;96667.03;;;1.50;100.00
36598;BME280;22607;49.550;11.940;2022-12-07T05:29:04;96663.50;;;1.40;100.00
36598;BME280;22607;49.550;11.940;2022-12-07T05:31:33;96658.44;;;1.38;100.00
36598;BME280;22607;49.550;11.940;2022-12-07T05:34:00;96665.72;;;1.44;100.00
36598;BME280;22607;49.550;11.940;2022-12-07T05:36:28;96656.78;;;1.49;100.00
36598;BME280;22607;49.550;11.940;2022-12-07T05:38:55;96657.63;;;1.49;100.00
36598;BME280;22607;49.550;11.940;2022-12-07T05:41:21;96648.31;;;1.47;100.00
36598;BME280;22607;49.550;11.940;2022-12-07T05:44:06;96648.56;;;1.43;100.00
36598;BME280;22607;49.550;11.940;2022-12-07T05:46:33;96648.56;;;1.32;100.00
36598;BME280;22607;49.550;11.940;2022-12-07T05:49:00;96647.84;;;1.30;100.00
36598;BME280;22607;49.550;11.940;2022-12-07T05:51:27;96645.88;;;1.34;100.00
36598;BME280;22607;49.550;11.940;2022-12-07T05:53:54;96653.16;;;1.40;100.00
36598;BME280;22607;49.550;11.940;2022-12-07T05:56:20;96647.63;;;1.33;100.00
36598;BME280;22607;49.550;11.940;2022-12-07T05:58:47;96653.84;;;1.53;100.00
36598;BME280;22607;49.550;11.940;2022-12-07T06:01:34;96651.03;;;1.45;100.00
36598;BME280;22607;49.550;11.940;2022-12-07T06:04:01;96648.91;;;1.50;100.00
36598;BME280;22607;49.550;11.940;2022-12-07T06:06:27;96651.94;;;1.55;100.00
36598;BME280;22607;49.550;11.940;2022-12-07T06:08:54;96646.69;;;1.46;100.00
36598;BME280;22607;49.550;11.940;2022-12-07T06:11:20;96646.31;;;1.50;100.00
36598;BME280;22607;49.550;11.940;2022-12-07T06:14:05;96646.44;;;1.49;100.00
36598;BME280;22607;49.550;11.940;2022-12-07T06:16:34;96651.13;;;1.55;100.00
36598;BME280;22607;49.550;11.940;2022-12-07T06:19:00;96650.06;;;1.57;100.00
36598;BME280;22607;49.550;11.940;2022-12-07T06:21:26;96653.72;;;1.21;100.00
36598;BME280;22607;49.550;11.940;2022-12-07T06:26:24;96658.06;;;1.54;100.00
36598;BME280;22607;49.550;11.940;2022-12-07T06:28:52;96659.75;;;1.44;100.00
36598;BME280;22607;49.550;11.940;2022-12-07T06:31:19;96656.56;;;1.17;100.00
36598;BME280;22607;49.550;11.940;2022-12-07T06:33:45;96657.03;;;1.23;100.00
36598;BME280;22607;49.550;11.940;2022-12-07T06:36:12;96660.22;;;1.26;100.00
36598;BME280;22607;49.550;11.940;2022-12-07T06:38:38;96663.00;;;1.46;100.00
36598;BME280;22607;49.550;11.940;2022-12-07T06:41:05;96664.44;;;1.50;100.00
36598;BME280;22607;49.550;11.940;2022-12-07T06:43:32;96664.91;;;1.44;100.00
36598;BME280;22607;49.550;11.940;2022-12-07T06:45:59;96665.13;;;1.64;100.00
36598;BME280;22607;49.550;11.940;2022-12-07T06:48:25;96662.31;;;1.55;100.00
36598;BME280;22607;49.550;11.940;2022-12-07T06:50:52;96656.09;;;1.35;100.00
36598;BME280;22607;49.550;11.940;2022-12-07T06:53:21;96655.72;;;1.28;100.00
36598;BME280;22607;49.550;11.940;2022-12-07T06:55:48;96655.75;;;1.40;100.00
36598;BME280;22607;49.550;11.940;2022-12-07T06:58:14;96651.84;;;1.46;100.00
36598;BME280;22607;49.550;11.940;2022-12-07T07:00:41;96660.91;;;1.40;100.00
36598;BME280;22607;49.550;11.940;2022-12-07T07:03:07;96663.84;;;1.35;100.00
36598;BME280;22607;49.550;11.940;2022-12-07T07:05:34;96672.31;;;1.49;100.00
36598;BME280;22607;49.550;11.940;2022-12-07T07:08:01;96661.63;;;1.53;100.00
36598;BME280;22607;49.550;11.940;2022-12-07T07:10:47;96668.88;;;1.60;100.00
36598;BME280;22607;49.550;11.940;2022-12-07T07:13:14;96667.75;;;1.52;100.00
36598;BME280;22607;49.550;11.940;2022-12-07T07:15:40;96670.88;;;1.67;100.00
36598;BME280;22607;49.550;11.940;2022-12-07T07:18:07;96664.31;;;1.52;100.00
36598;BME280;22607;49.550;11.940;2022-12-07T07:20:33;96667.97;;;1.49;100.00
36598;BME280;22607;49.550;11.940;2022-12-07T07:22:59;96666.09;;;1.40;100.00
36598;BME280;22607;49.550;11.940;2022-12-07T07:25:26;96669.47;;;1.63;100.00
36598;BME280;22607;49.550;11.940;2022-12-07T07:27:52;96677.38;;;1.39;100.00
36598;BME280;22607;49.550;11.940;2022-12-07T07:30:21;96676.44;;;1.40;100.00
36598;BME280;22607;49.550;11.940;2022-12-07T07:32:47;96674.63;;;1.63;100.00
36598;BME280;22607;49.550;11.940;2022-12-07T07:35:14;96669.25;;;1.43;100.00
36598;BME280;22607;49.550;11.940;2022-12-07T07:37:40;96670.91;;;1.56;100.00
36598;BME280;22607;49.550;11.940;2022-12-07T07:40:07;96668.63;;;1.74;100.00
36598;BME280;22607;49.550;11.940;2022-12-07T07:42:34;96671.72;;;1.45;100.00
36598;BME280;22607;49.550;11.940;2022-12-07T07:45:01;96667.75;;;1.52;100.00
36598;BME280;22607;49.550;11.940;2022-12-07T07:47:27;96671.97;;;1.42;100.00
36598;BME280;22607;49.550;11.940;2022-12-07T07:49:56;96675.34;;;1.54;100.00
36598;BME280;22607;49.550;11.940;2022-12-07T07:52:23;96663.72;;;1.60;100.00
36598;BME280;22607;49.550;11.940;2022-12-07T07:54:49;96670.78;;;1.57;100.00
36598;BME280;22607;49.550;11.940;2022-12-07T07:57:16;96668.44;;;1.54;100.00
36598;BME280;22607;49.550;11.940;2022-12-07T07:59:43;96663.94;;;1.68;100.00
36598;BME280;22607;49.550;11.940;2022-12-07T08:02:13;96666.44;;;1.35;100.00
36598;BME280;22607;49.550;11.940;2022-12-07T08:04:40;96663.72;;;1.60;100.00
36598;BME280;22607;49.550;11.940;2022-12-07T08:07:07;96660.66;;;1.54;100.00
36598;BME280;22607;49.550;11.940;2022-12-07T08:09:34;96666.06;;;1.51;100.00
36598;BME280;22607;49.550;11.940;2022-12-07T08:12:00;96670.78;;;1.57;100.00
36598;BME280;22607;49.550;11.940;2022-12-07T08:14:27;96671.59;;;1.69;100.00
36598;BME280;22607;49.550;11.940;2022-12-07T08:16:55;96666.91;;;1.52;100.00
36598;BME280;22607;49.550;11.940;2022-12-07T08:19:21;96676.41;;;1.51;100.00
36598;BME280;22607;49.550;11.940;2022-12-07T08:21:47;96678.28;;;1.61;100.00
36598;BME280;22607;49.550;11.940;2022-12-07T08:24:14;96679.47;;;1.68;100.00
36598;BME280;22607;49.550;11.940;2022-12-07T08:26:41;96686.75;;;1.74;100.00
36598;BME280;22607;49.550;11.940;2022-12-07T08:29:10;96682.97;;;1.78;100.00
36598;BME280;22607;49.550;11.940;2022-12-07T08:31:37;96682.75;;;1.81;100.00
36598;BME280;22607;49.550;11.940;2022-12-07T08:34:04;96681.59;;;1.51;100.00
36598;BME280;22607;49.550;11.940;2022-12-07T08:36:31;96682.63;;;1.72;100.00
36598;BME280;22607;49.550;11.940;2022-12-07T08:38:59;96682.56;;;1.62;100.00
36598;BME280;22607;49.550;11.940;2022-12-07T08:41:54;96691.22;;;1.83;100.00
36598;BME280;22607;49.550;11.940;2022-12-07T08:44:21;96683.72;;;1.69;100.00
36598;BME280;22607;49.550;11.940;2022-12-07T08:46:48;96687.22;;;1.79;100.00
36598;BME280;22607;49.550;11.940;2022-12-07T08:49:18;96685.78;;;1.87;100.00
36598;BME280;22607;49.550;11.940;2022-12-07T08:51:46;96686.88;;;1.84;100.00
36598;BME280;22607;49.550;11.940;2022-12-07T08:54:14;96689.06;;;2.00;100.00
36598;BME280;22607;49.550;11.940;2022-12-07T08:56:42;96681.25;;;1.56;100.00
36598;BME280;22607;49.550;11.940;2022-12-07T08:59:08;96683.47;;;1.72;100.00
36598;BME280;22607;49.550;11.940;2022-12-07T09:01:35;96685.09;;;1.85;100.00
36598;BME280;22607;49.550;11.940;2022-12-07T09:04:08;96690.28;;;1.85;100.00
36598;BME280;22607;49.550;11.940;2022-12-07T09:06:36;96688.38;;;1.87;100.00
36598;BME280;22607;49.550;11.940;2022-12-07T09:09:03;96684.84;;;1.99;100.00
36598;BME280;22607;49.550;11.940;2022-12-07T09:11:30;96687.78;;;1.94;100.00
36598;BME280;22607;49.550;11.940;2022-12-07T09:13:57;96693.78;;;1.95;100.00
36598;BME280;22607;49.550;11.940;2022-12-07T09:16:23;96691.88;;;1.97;100.00
36598;BME280;22607;49.550;11.940;2022-12-07T09:18:50;96693.81;;;1.83;100.00
36598;BME280;22607;49.550;11.940;2022-12-07T09:21:17;96686.44;;;2.12;100.00
36598;BME280;22607;49.550;11.940;2022-12-07T09:23:44;96698.13;;;1.94;100.00
36598;BME280;22607;49.550;11.940;2022-12-07T09:26:13;96700.50;;;1.98;100.00
36598;BME280;22607;49.550;11.940;2022-12-07T09:28:46;96703.19;;;1.96;100.00
36598;BME280;22607;49.550;11.940;2022-12-07T09:31:12;96694.69;;;2.05;100.00
36598;BME280;22607;49.550;11.940;2022-12-07T09:33:55;96691.94;;;2.18;100.00
36598;BME280;22607;49.550;11.940;2022-12-07T09:36:22;96701.53;;;2.06;100.00
36598;BME280;22607;49.550;11.940;2022-12-07T09:38:54;96699.69;;;2.30;100.00
36598;BME280;22607;49.550;11.940;2022-12-07T09:41:20;96693.22;;;2.24;100.00
36598;BME280;22607;49.550;11.940;2022-12-07T09:43:48;96693.47;;;2.21;100.00
36598;BME280;22607;49.550;11.940;2022-12-07T09:46:15;96688.91;;;2.13;100.00
36598;BME280;22607;49.550;11.940;2022-12-07T09:48:44;96685.41;;;2.35;100.00
36598;BME280;22607;49.550;11.940;2022-12-07T09:51:18;96679.78;;;2.30;100.00
36598;BME280;22607;49.550;11.940;2022-12-07T09:53:50;96686.34;;;2.34;100.00
36598;BME280;22607;49.550;11.940;2022-12-07T09:56:17;96679.31;;;2.25;100.00
36598;BME280;22607;49.550;11.940;2022-12-07T09:58:46;96684.25;;;2.28;100.00
36598;BME280;22607;49.550;11.940;2022-12-07T10:01:20;96675.34;;;2.42;100.00
36598;BME280;22607;49.550;11.940;2022-12-07T10:06:15;96667.53;;;2.32;100.00
36598;BME280;22607;49.550;11.940;2022-12-07T10:08:44;96667.56;;;2.21;100.00
36598;BME280;22607;49.550;11.940;2022-12-07T10:11:11;96665.19;;;2.51;100.00
36598;BME280;22607;49.550;11.940;2022-12-07T10:13:47;96669.25;;;2.43;100.00
36598;BME280;22607;49.550;11.940;2022-12-07T10:16:32;96669.06;;;2.56;100.00
36598;BME280;22607;49.550;11.940;2022-12-07T10:19:17;96665.50;;;2.57;100.00
36598;BME280;22607;49.550;11.940;2022-12-07T10:21:58;96667.41;;;2.34;100.00
36598;BME280;22607;49.550;11.940;2022-12-07T10:24:25;96662.91;;;2.57;100.00
36598;BME280;22607;49.550;11.940;2022-12-07T10:26:52;96661.47;;;2.65;100.00
36598;BME280;22607;49.550;11.940;2022-12-07T10:31:45;96656.97;;;2.67;100.00
36598;BME280;22607;49.550;11.940;2022-12-07T10:34:24;96655.13;;;2.57;100.00
36598;BME280;22607;49.550;11.940;2022-12-07T10:36:51;96645.09;;;2.64;100.00
36598;BME280;22607;49.550;11.940;2022-12-07T10:39:19;96656.34;;;2.53;100.00
36598;BME280;22607;49.550;11.940;2022-12-07T10:41:55;96659.38;;;2.37;100.00
36598;BME280;22607;49.550;11.940;2022-12-07T10:44:26;96651.09;;;2.65;100.00
36598;BME280;22607;49.550;11.940;2022-12-07T10:54:44;96638.31;;;2.94;100.00
36598;BME280;22607;49.550;11.940;2022-12-07T11:39:23;96608.66;;;3.28;100.00
36598;BME280;22607;49.550;11.940;2022-12-07T11:41:54;96611.59;;;3.13;100.00
36598;BME280;22607;49.550;11.940;2022-12-07T11:51:54;96603.03;;;2.92;100.00
36598;BME280;22607;49.550;11.940;2022-12-07T11:54:25;96610.09;;;2.80;100.00
36598;BME280;22607;49.550;11.940;2022-12-07T11:56:53;96598.00;;;2.90;100.00
36598;BME280;22607;49.550;11.940;2022-12-07T11:59:23;96601.31;;;2.71;100.00
36598;BME280;22607;49.550;11.940;2022-12-07T12:02:00;96603.53;;;2.75;100.00
36598;BME280;22607;49.550;11.940;2022-12-07T12:07:23;96605.34;;;2.63;100.00
36598;BME280;22607;49.550;11.940;2022-12-07T12:21:23;96596.22;;;2.91;100.00
36598;BME280;22607;49.550;11.940;2022-12-07T12:23:59;96588.59;;;2.99;100.00
36598;BME280;22607;49.550;11.940;2022-12-07T12:26:29;96586.91;;;2.78;100.00
36598;BME280;22607;49.550;11.940;2022-12-07T12:31:39;96589.91;;;2.83;100.00
36598;BME280;22607;49.550;11.940;2022-12-07T12:36:52;96588.84;;;2.86;100.00
36598;BME280;22607;49.550;11.940;2022-12-07T12:39:19;96586.13;;;2.87;100.00
36598;BME280;22607;49.550;11.940;2022-12-07T12:47:01;96581.97;;;2.75;100.00
36598;BME280;22607;49.550;11.940;2022-12-07T12:52:27;96586.13;;;2.87;100.00
36598;BME280;22607;49.550;11.940;2022-12-07T12:57:33;96581.44;;;2.81;100.00
36598;BME280;22607;49.550;11.940;2022-12-07T13:00:02;96581.53;;;2.70;100.00
36598;BME280;22607;49.550;11.940;2022-12-07T13:02:30;96579.88;;;2.69;100.00
36598;BME280;22607;49.550;11.940;2022-12-07T13:18:24;96570.69;;;2.86;100.00
36598;BME280;22607;49.550;11.940;2022-12-07T13:26:00;96567.22;;;2.75;100.00
36598;BME280;22607;49.550;11.940;2022-12-07T13:28:32;96576.06;;;2.73;100.00
36598;BME280;22607;49.550;11.940;2022-12-07T13:33:45;96564.28;;;2.90;100.00
36598;BME280;22607;49.550;11.940;2022-12-07T13:36:29;96563.44;;;2.89;100.00
36598;BME280;22607;49.550;11.940;2022-12-07T13:38:59;96559.41;;;2.97;100.00
36598;BME280;22607;49.550;11.940;2022-12-07T13:41:28;96559.94;;;3.00;100.00
36598;BME280;22607;49.550;11.940;2022-12-07T13:44:00;96560.97;;;2.78;100.00
36598;BME280;22607;49.550;11.940;2022-12-07T13:49:27;96557.34;;;3.00;100.00
36598;BME280;22607;49.550;11.940;2022-12-07T13:51:54;96561.03;;;3.08;100.00
36598;BME280;22607;49.550;11.940;2022-12-07T13:54:21;96560.50;;;3.04;100.00
36598;BME280;22607;49.550;11.940;2022-12-07T13:56:49;96557.91;;;3.04;100.00
36598;BME280;22607;49.550;11.940;2022-12-07T13:59:17;96558.78;;;2.83;100.00
36598;BME280;22607;49.550;11.940;2022-12-07T14:01:44;96558.50;;;2.86;100.00
36598;BME280;22607;49.550;11.940;2022-12-07T14:06:58;96558.00;;;2.93;100.00
36598;BME280;22607;49.550;11.940;2022-12-07T14:09:25;96563.75;;;2.96;100.00
36598;BME280;22607;49.550;11.940;2022-12-07T14:11:53;96560.84;;;2.89;100.00
36598;BME280;22607;49.550;11.940;2022-12-07T14:14:21;96556.25;;;3.03;100.00
36598;BME280;22607;49.550;11.940;2022-12-07T14:16:55;96556.94;;;2.95;100.00
36598;BME280;22607;49.550;11.940;2022-12-07T14:24:50;96558.94;;;2.92;100.00
36598;BME280;22607;49.550;11.940;2022-12-07T14:27:24;96563.06;;;2.94;100.00
36598;BME280;22607;49.550;11.940;2022-12-07T14:29:56;96565.06;;;2.81;100.00
36598;BME280;22607;49.550;11.940;2022-12-07T14:32:29;96568.88;;;2.86;100.00
36598;BME280;22607;49.550;11.940;2022-12-07T14:37:36;96552.53;;;2.86;100.00
36598;BME280;22607;49.550;11.940;2022-12-07T14:40:03;96554.50;;;2.72;100.00
36598;BME280;22607;49.550;11.940;2022-12-07T14:42:30;96556.63;;;2.88;100.00
36598;BME280;22607;49.550;11.940;2022-12-07T14:44:58;96546.44;;;2.66;100.00
36598;BME280;22607;49.550;11.940;2022-12-07T14:47:25;96557.88;;;2.94;100.00
36598;BME280;22607;49.550;11.940;2022-12-07T14:50:16;96551.69;;;2.85;100.00
36598;BME280;22607;49.550;11.940;2022-12-07T14:52:56;96542.03;;;2.87;100.00
36598;BME280;22607;49.550;11.940;2022-12-07T14:55:44;96544.00;;;2.74;100.00
36598;BME280;22607;49.550;11.940;2022-12-07T14:58:15;96544.81;;;2.74;100.00
36598;BME280;22607;49.550;11.940;2022-12-07T15:00:47;96540.09;;;2.58;100.00
36598;BME280;22607;49.550;11.940;2022-12-07T15:03:14;96539.06;;;2.71;100.00
36598;BME280;22607;49.550;11.940;2022-12-07T15:05:41;96543.59;;;2.69;100.00
36598;BME280;22607;49.550;11.940;2022-12-07T15:08:12;96538.53;;;2.77;100.00
36598;BME280;22607;49.550;11.940;2022-12-07T15:10:41;96542.28;;;2.84;100.00
36598;BME280;22607;49.550;11.940;2022-12-07T15:13:09;96541.31;;;2.85;100.00
36598;BME280;22607;49.550;11.940;2022-12-07T15:15:55;96537.75;;;2.86;100.00
36598;BME280;22607;49.550;11.940;2022-12-07T15:18:23;96537.25;;;2.93;100.00
36598;BME280;22607;49.550;11.940;2022-12-07T15:20:51;96532.56;;;2.86;100.00
36598;BME280;22607;49.550;11.940;2022-12-07T15:23:18;96530.56;;;2.59;100.00
36598;BME280;22607;49.550;11.940;2022-12-07T15:25:46;96535.00;;;2.47;100.00
36598;BME280;22607;49.550;11.940;2022-12-07T15:28:14;96523.56;;;2.49;100.00
36598;BME280;22607;49.550;11.940;2022-12-07T15:30:42;96522.84;;;2.47;100.00
36598;BME280;22607;49.550;11.940;2022-12-07T15:33:12;96528.25;;;2.34;100.00
36598;BME280;22607;49.550;11.940;2022-12-07T15:35:48;96523.69;;;2.48;100.00
36598;BME280;22607;49.550;11.940;2022-12-07T15:38:14;96529.28;;;2.53;100.00